TTW724 RCTP-RJOH
Flight info
| Callsign | TTW724 |
|---|---|
| Flight time | 2h 10m |
| Altitude | 35000 |
| Route | MOLKA1A MOLKA M750 MOMPA Y451 HKC Y45 KYOKA KYURI |
| Aircraft | B738/M-L/2611 |
Departure
| Time | 2026-05-05 06:59 |
|---|---|
| Airport | Taiwan Taoyuan International Airport (RCTP) |
Arrival
| Time | 2026-05-05 09:09 |
|---|---|
| Airport | Yonago Kitaro Airport / JASDF Miho Air Base (RJOH) |
| Time | Latitude | Longitude | Altitude | Speed | Heading |
|---|---|---|---|---|---|
| 2026-05-05 06:31 | 25.08470 | 121.23862 | 113 ft | 0 kts | 200° |
| 2026-05-05 06:47 | 25.08481 | 121.23895 | 113 ft | 0 kts | 200° |
| 2026-05-05 06:47 | 25.08482 | 121.23901 | 113 ft | 0 kts | 319° |
| 2026-05-05 06:50 | 25.08484 | 121.23899 | 113 ft | 1 kts | 319° |
| 2026-05-05 06:50 | 25.08513 | 121.23871 | 113 ft | 9 kts | 318° |
| 2026-05-05 06:50 | 25.08572 | 121.23811 | 113 ft | 12 kts | 319° |
| 2026-05-05 06:50 | 25.08597 | 121.23749 | 113 ft | 8 kts | 236° |
| 2026-05-05 06:51 | 25.08557 | 121.23695 | 113 ft | 10 kts | 229° |
| 2026-05-05 06:51 | 25.08504 | 121.23629 | 113 ft | 13 kts | 229° |
| 2026-05-05 06:51 | 25.08425 | 121.23528 | 113 ft | 21 kts | 229° |
| 2026-05-05 06:51 | 25.08308 | 121.23380 | 113 ft | 28 kts | 228° |
| 2026-05-05 06:52 | 25.08161 | 121.23192 | 113 ft | 35 kts | 229° |
| 2026-05-05 06:52 | 25.07997 | 121.22984 | 113 ft | 34 kts | 229° |
| 2026-05-05 06:52 | 25.07849 | 121.22796 | 113 ft | 30 kts | 229° |
| 2026-05-05 06:52 | 25.07734 | 121.22652 | 113 ft | 22 kts | 228° |
| 2026-05-05 06:53 | 25.07640 | 121.22530 | 113 ft | 21 kts | 229° |
| 2026-05-05 06:53 | 25.07540 | 121.22405 | 113 ft | 21 kts | 229° |
| 2026-05-05 06:53 | 25.07448 | 121.22287 | 113 ft | 19 kts | 229° |
| 2026-05-05 06:53 | 25.07365 | 121.22185 | 113 ft | 15 kts | 217° |
| 2026-05-05 06:54 | 25.07277 | 121.22208 | 113 ft | 13 kts | 139° |
| 2026-05-05 06:54 | 25.07202 | 121.22279 | 113 ft | 15 kts | 139° |
| 2026-05-05 06:54 | 25.07115 | 121.22363 | 113 ft | 17 kts | 138° |
| 2026-05-05 06:54 | 25.07015 | 121.22461 | 113 ft | 19 kts | 139° |
| 2026-05-05 06:55 | 25.06908 | 121.22562 | 113 ft | 21 kts | 139° |
| 2026-05-05 06:55 | 25.06802 | 121.22664 | 113 ft | 18 kts | 138° |
| 2026-05-05 06:55 | 25.06713 | 121.22670 | 113 ft | 13 kts | 221° |
| 2026-05-05 06:55 | 25.06646 | 121.22593 | 113 ft | 14 kts | 229° |
| 2026-05-05 06:56 | 25.06579 | 121.22507 | 113 ft | 15 kts | 229° |
| 2026-05-05 06:56 | 25.06509 | 121.22418 | 113 ft | 15 kts | 229° |
| 2026-05-05 06:56 | 25.06431 | 121.22319 | 113 ft | 18 kts | 229° |
| 2026-05-05 06:56 | 25.06339 | 121.22259 | 113 ft | 12 kts | 173° |
| 2026-05-05 06:57 | 25.06247 | 121.22249 | 113 ft | 13 kts | 184° |
| 2026-05-05 06:57 | 25.06158 | 121.22294 | 113 ft | 14 kts | 143° |
| 2026-05-05 06:57 | 25.06108 | 121.22365 | 113 ft | 10 kts | 79° |
| 2026-05-05 06:57 | 25.06145 | 121.22427 | 113 ft | 9 kts | 49° |
| 2026-05-05 06:58 | 25.06209 | 121.22508 | 113 ft | 34 kts | 49° |
| 2026-05-05 06:58 | 25.06529 | 121.22913 | 113 ft | 104 kts | 49° |
| 2026-05-05 06:58 | 25.07144 | 121.23695 | 114 ft | 162 kts | 49° |
| 2026-05-05 06:58 | 25.07938 | 121.24699 | 551 ft | 175 kts | 49° |
| 2026-05-05 06:59 | 25.08717 | 121.25703 | 1273 ft | 175 kts | 49° |
| 2026-05-05 06:59 | 25.09492 | 121.26715 | 1930 ft | 176 kts | 50° |
| 2026-05-05 06:59 | 25.10334 | 121.27839 | 2158 ft | 201 kts | 50° |
| 2026-05-05 06:59 | 25.11274 | 121.29082 | 2454 ft | 223 kts | 50° |
| 2026-05-05 07:00 | 25.12349 | 121.30409 | 2958 ft | 238 kts | 46° |
| 2026-05-05 07:00 | 25.13556 | 121.31763 | 3428 ft | 255 kts | 46° |
| 2026-05-05 07:00 | 25.14794 | 121.33159 | 4161 ft | 259 kts | 47° |
| 2026-05-05 07:00 | 25.16039 | 121.34576 | 4906 ft | 263 kts | 47° |
| 2026-05-05 07:01 | 25.17306 | 121.36028 | 5660 ft | 266 kts | 47° |
| 2026-05-05 07:01 | 25.18599 | 121.37514 | 6413 ft | 269 kts | 48° |
| 2026-05-05 07:01 | 25.19880 | 121.38988 | 7133 ft | 271 kts | 48° |
| 2026-05-05 07:01 | 25.21186 | 121.40493 | 7845 ft | 274 kts | 49° |
| 2026-05-05 07:02 | 25.22518 | 121.42028 | 8549 ft | 277 kts | 49° |
| 2026-05-05 07:02 | 25.23838 | 121.43551 | 9233 ft | 280 kts | 49° |
| 2026-05-05 07:02 | 25.25187 | 121.45108 | 9913 ft | 282 kts | 49° |
| 2026-05-05 07:02 | 25.26564 | 121.46699 | 10355 ft | 294 kts | 49° |
| 2026-05-05 07:03 | 25.28030 | 121.48398 | 10411 ft | 318 kts | 49° |
| 2026-05-05 07:03 | 25.29415 | 121.50409 | 10696 ft | 331 kts | 61° |
| 2026-05-05 07:03 | 25.30548 | 121.52611 | 11296 ft | 335 kts | 62° |
| 2026-05-05 07:03 | 25.31709 | 121.54855 | 11938 ft | 338 kts | 61° |
| 2026-05-05 07:04 | 25.32907 | 121.57082 | 12543 ft | 342 kts | 60° |
| 2026-05-05 07:04 | 25.34151 | 121.59342 | 13179 ft | 345 kts | 60° |
| 2026-05-05 07:04 | 25.35424 | 121.61633 | 13814 ft | 349 kts | 60° |
| 2026-05-05 07:04 | 25.36703 | 121.63922 | 14431 ft | 353 kts | 60° |
| 2026-05-05 07:05 | 25.38002 | 121.66244 | 15053 ft | 357 kts | 60° |
| 2026-05-05 07:05 | 25.39321 | 121.68600 | 15666 ft | 361 kts | 60° |
| 2026-05-05 07:05 | 25.40642 | 121.70959 | 16256 ft | 365 kts | 60° |
| 2026-05-05 07:05 | 25.41983 | 121.73355 | 16838 ft | 369 kts | 60° |
| 2026-05-05 07:06 | 25.43338 | 121.75777 | 17402 ft | 373 kts | 60° |
| 2026-05-05 07:06 | 25.44707 | 121.78223 | 17959 ft | 376 kts | 60° |
| 2026-05-05 07:06 | 25.46089 | 121.80694 | 18501 ft | 380 kts | 60° |
| 2026-05-05 07:06 | 25.47485 | 121.83191 | 19030 ft | 384 kts | 60° |
| 2026-05-05 07:07 | 25.48886 | 121.85699 | 19549 ft | 388 kts | 60° |
| 2026-05-05 07:07 | 25.50317 | 121.88262 | 20058 ft | 391 kts | 60° |
| 2026-05-05 07:07 | 25.51751 | 121.90831 | 20558 ft | 395 kts | 60° |
| 2026-05-05 07:07 | 25.53186 | 121.93404 | 21033 ft | 398 kts | 60° |
| 2026-05-05 07:08 | 25.54654 | 121.96036 | 21512 ft | 402 kts | 60° |
| 2026-05-05 07:08 | 25.56133 | 121.98691 | 21969 ft | 405 kts | 60° |
| 2026-05-05 07:08 | 25.57602 | 122.01329 | 22420 ft | 408 kts | 60° |
| 2026-05-05 07:08 | 25.59101 | 122.04022 | 22859 ft | 411 kts | 60° |
| 2026-05-05 07:09 | 25.60623 | 122.06757 | 23296 ft | 415 kts | 60° |
| 2026-05-05 07:09 | 25.62123 | 122.09456 | 23714 ft | 418 kts | 60° |
| 2026-05-05 07:09 | 25.63654 | 122.12212 | 24127 ft | 421 kts | 60° |
| 2026-05-05 07:09 | 25.65205 | 122.15005 | 24538 ft | 424 kts | 60° |
| 2026-05-05 07:10 | 25.66747 | 122.17785 | 24927 ft | 427 kts | 60° |
| 2026-05-05 07:10 | 25.68304 | 122.20591 | 25317 ft | 430 kts | 60° |
| 2026-05-05 07:10 | 25.69877 | 122.23430 | 25649 ft | 432 kts | 60° |
| 2026-05-05 07:10 | 25.71439 | 122.26248 | 26013 ft | 435 kts | 60° |
| 2026-05-05 07:11 | 25.73029 | 122.29121 | 26358 ft | 438 kts | 60° |
| 2026-05-05 07:11 | 25.74619 | 122.31995 | 26718 ft | 440 kts | 60° |
| 2026-05-05 07:11 | 25.76221 | 122.34892 | 27062 ft | 443 kts | 60° |
| 2026-05-05 07:11 | 25.77833 | 122.37809 | 27405 ft | 446 kts | 60° |
| 2026-05-05 07:12 | 25.79450 | 122.40739 | 27736 ft | 448 kts | 60° |
| 2026-05-05 07:12 | 25.81079 | 122.43690 | 28065 ft | 451 kts | 60° |
| 2026-05-05 07:12 | 25.82711 | 122.46650 | 28382 ft | 453 kts | 60° |
| 2026-05-05 07:12 | 25.84372 | 122.49663 | 28701 ft | 456 kts | 60° |
| 2026-05-05 07:13 | 25.86015 | 122.52645 | 29003 ft | 458 kts | 60° |
| 2026-05-05 07:13 | 25.87679 | 122.55670 | 29305 ft | 461 kts | 60° |
| 2026-05-05 07:13 | 25.89359 | 122.58739 | 29597 ft | 463 kts | 60° |
| 2026-05-05 07:13 | 25.91014 | 122.61773 | 29904 ft | 465 kts | 60° |
| 2026-05-05 07:14 | 25.92694 | 122.64844 | 30270 ft | 465 kts | 60° |
| 2026-05-05 07:14 | 25.94386 | 122.67919 | 30648 ft | 465 kts | 60° |
| 2026-05-05 07:14 | 25.96072 | 122.70955 | 31015 ft | 464 kts | 60° |
| 2026-05-05 07:14 | 25.97783 | 122.74004 | 31388 ft | 464 kts | 59° |
| 2026-05-05 07:15 | 25.99504 | 122.77036 | 31750 ft | 463 kts | 59° |
| 2026-05-05 07:15 | 26.01226 | 122.80044 | 32104 ft | 463 kts | 59° |
| 2026-05-05 07:15 | 26.02951 | 122.83038 | 32450 ft | 462 kts | 59° |
| 2026-05-05 07:15 | 26.04676 | 122.86022 | 32787 ft | 462 kts | 58° |
| 2026-05-05 07:16 | 26.06406 | 122.89016 | 33122 ft | 461 kts | 58° |
| 2026-05-05 07:16 | 26.08132 | 122.92028 | 33478 ft | 460 kts | 59° |
| 2026-05-05 07:16 | 26.09830 | 122.95039 | 33826 ft | 458 kts | 59° |
| 2026-05-05 07:16 | 26.11486 | 122.98023 | 34163 ft | 457 kts | 59° |
| 2026-05-05 07:17 | 26.13126 | 123.01027 | 34497 ft | 455 kts | 60° |
| 2026-05-05 07:17 | 26.14742 | 123.04038 | 34824 ft | 454 kts | 60° |
| 2026-05-05 07:17 | 26.16346 | 123.07061 | 34985 ft | 455 kts | 60° |
| 2026-05-05 07:18 | 26.19525 | 123.13138 | 34966 ft | 450 kts | 60° |
| 2026-05-05 07:18 | 26.22630 | 123.19109 | 34967 ft | 447 kts | 60° |
| 2026-05-05 07:19 | 26.25759 | 123.25098 | 34966 ft | 449 kts | 60° |
| 2026-05-05 07:19 | 26.28956 | 123.31134 | 34966 ft | 450 kts | 59° |
| 2026-05-05 07:20 | 26.32149 | 123.37112 | 34966 ft | 449 kts | 59° |
| 2026-05-05 07:20 | 26.35359 | 123.43092 | 34966 ft | 449 kts | 59° |
| 2026-05-05 07:21 | 26.38565 | 123.49056 | 34966 ft | 449 kts | 59° |
| 2026-05-05 07:21 | 26.41775 | 123.55027 | 34966 ft | 449 kts | 59° |
| 2026-05-05 07:22 | 26.45003 | 123.61031 | 34966 ft | 449 kts | 59° |
| 2026-05-05 07:22 | 26.48207 | 123.66998 | 34978 ft | 449 kts | 60° |
| 2026-05-05 07:23 | 26.51397 | 123.72943 | 34992 ft | 449 kts | 60° |
| 2026-05-05 07:23 | 26.54609 | 123.78938 | 35005 ft | 449 kts | 60° |
| 2026-05-05 07:24 | 26.57793 | 123.84885 | 35019 ft | 449 kts | 60° |
| 2026-05-05 07:24 | 26.61021 | 123.90925 | 35020 ft | 449 kts | 60° |
| 2026-05-05 07:25 | 26.64200 | 123.96862 | 35019 ft | 449 kts | 59° |
| 2026-05-05 07:25 | 26.67888 | 124.02535 | 35021 ft | 449 kts | 51° |
| 2026-05-05 07:26 | 26.71834 | 124.07901 | 35020 ft | 450 kts | 51° |
| 2026-05-05 07:26 | 26.75810 | 124.13264 | 35020 ft | 450 kts | 51° |
| 2026-05-05 07:27 | 26.79821 | 124.18664 | 35020 ft | 449 kts | 50° |
| 2026-05-05 07:27 | 26.83811 | 124.24031 | 35020 ft | 449 kts | 50° |
| 2026-05-05 07:28 | 26.87796 | 124.29394 | 35020 ft | 450 kts | 50° |
| 2026-05-05 07:28 | 26.91792 | 124.34778 | 35020 ft | 450 kts | 50° |
| 2026-05-05 07:29 | 26.95769 | 124.40139 | 35020 ft | 450 kts | 50° |
| 2026-05-05 07:29 | 26.99765 | 124.45531 | 35020 ft | 450 kts | 50° |
| 2026-05-05 07:30 | 27.03766 | 124.50932 | 35020 ft | 450 kts | 50° |
| 2026-05-05 07:30 | 27.09770 | 124.59045 | 35019 ft | 450 kts | 50° |
| 2026-05-05 07:31 | 27.13743 | 124.64422 | 35020 ft | 450 kts | 50° |
| 2026-05-05 07:31 | 27.17750 | 124.69851 | 35020 ft | 450 kts | 50° |
| 2026-05-05 07:32 | 27.21734 | 124.75257 | 35020 ft | 450 kts | 50° |
| 2026-05-05 07:32 | 27.25701 | 124.80647 | 35020 ft | 450 kts | 50° |
| 2026-05-05 07:33 | 27.29696 | 124.86083 | 35020 ft | 453 kts | 50° |
| 2026-05-05 07:33 | 27.33719 | 124.91564 | 35020 ft | 456 kts | 50° |
| 2026-05-05 07:34 | 27.37754 | 124.97070 | 35019 ft | 458 kts | 50° |
| 2026-05-05 07:34 | 27.41814 | 125.02593 | 35020 ft | 460 kts | 50° |
| 2026-05-05 07:35 | 27.45946 | 125.08159 | 35028 ft | 463 kts | 50° |
| 2026-05-05 07:35 | 27.50071 | 125.13721 | 35051 ft | 463 kts | 50° |
| 2026-05-05 07:36 | 27.54181 | 125.19276 | 35083 ft | 462 kts | 49° |
| 2026-05-05 07:36 | 27.58284 | 125.24828 | 35107 ft | 462 kts | 50° |
| 2026-05-05 07:37 | 27.62404 | 125.30412 | 35128 ft | 462 kts | 50° |
| 2026-05-05 07:37 | 27.66487 | 125.35954 | 35127 ft | 461 kts | 50° |
| 2026-05-05 07:38 | 27.70589 | 125.41531 | 35128 ft | 461 kts | 49° |
| 2026-05-05 07:38 | 27.74678 | 125.47095 | 35127 ft | 462 kts | 50° |
| 2026-05-05 07:39 | 27.78745 | 125.52634 | 35127 ft | 461 kts | 50° |
| 2026-05-05 07:39 | 27.82840 | 125.58222 | 35128 ft | 461 kts | 50° |
| 2026-05-05 07:40 | 27.86921 | 125.63798 | 35128 ft | 462 kts | 50° |
| 2026-05-05 07:40 | 27.91037 | 125.69428 | 35127 ft | 463 kts | 50° |
| 2026-05-05 07:41 | 27.95140 | 125.75043 | 35127 ft | 462 kts | 50° |
| 2026-05-05 07:41 | 27.99220 | 125.80638 | 35128 ft | 462 kts | 50° |
| 2026-05-05 07:42 | 28.03300 | 125.86243 | 35128 ft | 462 kts | 50° |
| 2026-05-05 07:42 | 28.07389 | 125.91863 | 35126 ft | 463 kts | 50° |
| 2026-05-05 07:43 | 28.11489 | 125.97507 | 35127 ft | 462 kts | 50° |
| 2026-05-05 07:43 | 28.15535 | 126.03085 | 35127 ft | 461 kts | 50° |
| 2026-05-05 07:44 | 28.19599 | 126.08697 | 35128 ft | 460 kts | 50° |
| 2026-05-05 07:44 | 28.23654 | 126.14304 | 35128 ft | 461 kts | 50° |
| 2026-05-05 07:45 | 28.27710 | 126.19920 | 35128 ft | 462 kts | 50° |
| 2026-05-05 07:45 | 28.31754 | 126.25523 | 35128 ft | 462 kts | 50° |
| 2026-05-05 07:46 | 28.35844 | 126.31199 | 35128 ft | 463 kts | 50° |
| 2026-05-05 07:46 | 28.39895 | 126.36832 | 35128 ft | 462 kts | 50° |
| 2026-05-05 07:47 | 28.43941 | 126.42462 | 35127 ft | 462 kts | 50° |
| 2026-05-05 07:47 | 28.48029 | 126.48159 | 35128 ft | 462 kts | 50° |
| 2026-05-05 07:48 | 28.52073 | 126.53800 | 35127 ft | 462 kts | 50° |
| 2026-05-05 07:48 | 28.56123 | 126.59460 | 35127 ft | 462 kts | 50° |
| 2026-05-05 07:49 | 28.60183 | 126.65140 | 35127 ft | 462 kts | 50° |
| 2026-05-05 07:49 | 28.64231 | 126.70808 | 35128 ft | 462 kts | 50° |
| 2026-05-05 07:50 | 28.68296 | 126.76511 | 35126 ft | 463 kts | 50° |
| 2026-05-05 07:50 | 28.72327 | 126.82172 | 35123 ft | 462 kts | 50° |
| 2026-05-05 07:51 | 28.76377 | 126.87869 | 35116 ft | 462 kts | 51° |
| 2026-05-05 07:51 | 28.80417 | 126.93559 | 35106 ft | 461 kts | 51° |
| 2026-05-05 07:52 | 28.84472 | 126.99280 | 35101 ft | 461 kts | 50° |
| 2026-05-05 07:52 | 28.88469 | 127.04926 | 35101 ft | 461 kts | 50° |
| 2026-05-05 07:53 | 28.92502 | 127.10633 | 35101 ft | 461 kts | 50° |
| 2026-05-05 07:53 | 28.96518 | 127.16322 | 35100 ft | 459 kts | 50° |
| 2026-05-05 07:54 | 29.00496 | 127.21969 | 35101 ft | 456 kts | 50° |
| 2026-05-05 07:54 | 29.04464 | 127.27605 | 35101 ft | 453 kts | 50° |
| 2026-05-05 07:55 | 29.08389 | 127.33185 | 35101 ft | 451 kts | 50° |
| 2026-05-05 07:55 | 29.12308 | 127.38761 | 35101 ft | 449 kts | 50° |
| 2026-05-05 07:56 | 29.16203 | 127.44313 | 35101 ft | 448 kts | 50° |
| 2026-05-05 07:56 | 29.20115 | 127.49897 | 35101 ft | 449 kts | 50° |
| 2026-05-05 07:57 | 29.24024 | 127.55486 | 35101 ft | 449 kts | 50° |
| 2026-05-05 07:57 | 29.27908 | 127.61043 | 35101 ft | 448 kts | 50° |
| 2026-05-05 07:58 | 29.31792 | 127.66614 | 35101 ft | 449 kts | 50° |
| 2026-05-05 07:58 | 29.35692 | 127.72211 | 35101 ft | 449 kts | 50° |
| 2026-05-05 07:59 | 29.39597 | 127.77822 | 35101 ft | 449 kts | 50° |
| 2026-05-05 07:59 | 29.43476 | 127.83407 | 35101 ft | 449 kts | 50° |
| 2026-05-05 08:00 | 29.47385 | 127.89040 | 35101 ft | 449 kts | 50° |
| 2026-05-05 08:00 | 29.51290 | 127.94677 | 35101 ft | 449 kts | 50° |
| 2026-05-05 08:01 | 29.55164 | 128.00273 | 35101 ft | 449 kts | 50° |
| 2026-05-05 08:01 | 29.59056 | 128.05899 | 35101 ft | 449 kts | 50° |
| 2026-05-05 08:02 | 29.62939 | 128.11523 | 35101 ft | 449 kts | 50° |
| 2026-05-05 08:02 | 29.66809 | 128.17136 | 35101 ft | 449 kts | 50° |
| 2026-05-05 08:03 | 29.70698 | 128.22781 | 35101 ft | 449 kts | 50° |
| 2026-05-05 08:03 | 29.74558 | 128.28392 | 35101 ft | 449 kts | 50° |
| 2026-05-05 08:04 | 29.78414 | 128.34009 | 35101 ft | 449 kts | 50° |
| 2026-05-05 08:04 | 29.82272 | 128.39632 | 35101 ft | 449 kts | 50° |
| 2026-05-05 08:05 | 29.86155 | 128.45302 | 35101 ft | 449 kts | 50° |
| 2026-05-05 08:05 | 29.90009 | 128.50935 | 35101 ft | 449 kts | 50° |
| 2026-05-05 08:06 | 29.93893 | 128.56624 | 35101 ft | 449 kts | 50° |
| 2026-05-05 08:06 | 29.97741 | 128.62265 | 35101 ft | 449 kts | 50° |
| 2026-05-05 08:07 | 30.01582 | 128.67903 | 35101 ft | 449 kts | 50° |
| 2026-05-05 08:07 | 30.05446 | 128.73583 | 35101 ft | 449 kts | 50° |
| 2026-05-05 08:08 | 30.09310 | 128.79272 | 35101 ft | 449 kts | 50° |
| 2026-05-05 08:08 | 30.13174 | 128.84970 | 35101 ft | 449 kts | 50° |
| 2026-05-05 08:09 | 30.17000 | 128.90617 | 35101 ft | 449 kts | 50° |
| 2026-05-05 08:09 | 30.20859 | 128.96324 | 35101 ft | 450 kts | 50° |
| 2026-05-05 08:10 | 30.24733 | 129.02061 | 35101 ft | 451 kts | 50° |
| 2026-05-05 08:10 | 30.28603 | 129.07803 | 35107 ft | 453 kts | 50° |
| 2026-05-05 08:11 | 30.32471 | 129.13542 | 35114 ft | 455 kts | 51° |
| 2026-05-05 08:11 | 30.36377 | 129.19353 | 35122 ft | 454 kts | 51° |
| 2026-05-05 08:12 | 30.40248 | 129.25119 | 35128 ft | 454 kts | 50° |
| 2026-05-05 08:12 | 30.44134 | 129.30914 | 35128 ft | 455 kts | 50° |
| 2026-05-05 08:13 | 30.48009 | 129.36703 | 35128 ft | 455 kts | 51° |
| 2026-05-05 08:13 | 30.51907 | 129.42537 | 35127 ft | 454 kts | 50° |
| 2026-05-05 08:14 | 30.55766 | 129.48315 | 35128 ft | 454 kts | 50° |
| 2026-05-05 08:14 | 30.59613 | 129.54089 | 35128 ft | 454 kts | 50° |
| 2026-05-05 08:15 | 30.63496 | 129.59920 | 35128 ft | 455 kts | 50° |
| 2026-05-05 08:15 | 30.67342 | 129.65709 | 35127 ft | 454 kts | 51° |
| 2026-05-05 08:16 | 30.71219 | 129.71550 | 35128 ft | 455 kts | 51° |
| 2026-05-05 08:16 | 30.75085 | 129.77385 | 35128 ft | 454 kts | 51° |
| 2026-05-05 08:17 | 30.78923 | 129.83185 | 35129 ft | 454 kts | 51° |
| 2026-05-05 08:17 | 30.82853 | 129.88954 | 35127 ft | 454 kts | 47° |
| 2026-05-05 08:18 | 30.87471 | 129.93877 | 35131 ft | 451 kts | 33° |
| 2026-05-05 08:18 | 30.92655 | 129.97954 | 35127 ft | 451 kts | 31° |
| 2026-05-05 08:19 | 30.97941 | 130.02054 | 35128 ft | 452 kts | 31° |
| 2026-05-05 08:19 | 31.03187 | 130.06128 | 35128 ft | 453 kts | 30° |
| 2026-05-05 08:20 | 31.08449 | 130.10216 | 35128 ft | 455 kts | 30° |
| 2026-05-05 08:20 | 31.13695 | 130.14296 | 35128 ft | 454 kts | 30° |
| 2026-05-05 08:21 | 31.18965 | 130.18405 | 35128 ft | 453 kts | 30° |
| 2026-05-05 08:21 | 31.24197 | 130.22492 | 35128 ft | 454 kts | 30° |
| 2026-05-05 08:22 | 31.29415 | 130.26570 | 35128 ft | 454 kts | 30° |
| 2026-05-05 08:22 | 31.34671 | 130.30688 | 35128 ft | 454 kts | 30° |
| 2026-05-05 08:23 | 31.39880 | 130.34775 | 35128 ft | 454 kts | 30° |
| 2026-05-05 08:23 | 31.45137 | 130.38905 | 35128 ft | 454 kts | 30° |
| 2026-05-05 08:24 | 31.50379 | 130.43028 | 35128 ft | 454 kts | 30° |
| 2026-05-05 08:24 | 31.55640 | 130.47174 | 35128 ft | 454 kts | 30° |
| 2026-05-05 08:25 | 31.60886 | 130.51312 | 35127 ft | 454 kts | 30° |
| 2026-05-05 08:25 | 31.66124 | 130.55449 | 35128 ft | 454 kts | 30° |
| 2026-05-05 08:26 | 31.71403 | 130.59576 | 35127 ft | 453 kts | 28° |
| 2026-05-05 08:26 | 31.76737 | 130.63446 | 35128 ft | 452 kts | 28° |
| 2026-05-05 08:27 | 31.82105 | 130.67331 | 35128 ft | 453 kts | 28° |
| 2026-05-05 08:27 | 31.87461 | 130.71219 | 35128 ft | 453 kts | 28° |
| 2026-05-05 08:28 | 31.92827 | 130.75130 | 35128 ft | 453 kts | 28° |
| 2026-05-05 08:28 | 31.98158 | 130.79021 | 35128 ft | 454 kts | 28° |
| 2026-05-05 08:29 | 32.03505 | 130.82933 | 35128 ft | 453 kts | 28° |
| 2026-05-05 08:30 | 32.11560 | 130.88840 | 35128 ft | 453 kts | 28° |
| 2026-05-05 08:30 | 32.16890 | 130.92712 | 35128 ft | 453 kts | 28° |
| 2026-05-05 08:31 | 32.22297 | 130.96606 | 35119 ft | 453 kts | 28° |
| 2026-05-05 08:31 | 32.27671 | 131.00484 | 35110 ft | 453 kts | 28° |
| 2026-05-05 08:32 | 32.33064 | 131.04385 | 35101 ft | 453 kts | 28° |
| 2026-05-05 08:32 | 32.38415 | 131.08261 | 35103 ft | 453 kts | 28° |
| 2026-05-05 08:33 | 32.43806 | 131.12195 | 35104 ft | 453 kts | 28° |
| 2026-05-05 08:33 | 32.49157 | 131.16171 | 35101 ft | 453 kts | 28° |
| 2026-05-05 08:34 | 32.54478 | 131.20132 | 35101 ft | 453 kts | 28° |
| 2026-05-05 08:34 | 32.59822 | 131.24114 | 35101 ft | 453 kts | 28° |
| 2026-05-05 08:35 | 32.65186 | 131.28116 | 35101 ft | 453 kts | 28° |
| 2026-05-05 08:35 | 32.70504 | 131.32088 | 35101 ft | 453 kts | 28° |
| 2026-05-05 08:36 | 32.75821 | 131.36066 | 35101 ft | 453 kts | 28° |
| 2026-05-05 08:36 | 32.81161 | 131.40065 | 35101 ft | 453 kts | 28° |
| 2026-05-05 08:37 | 32.86536 | 131.44041 | 35106 ft | 453 kts | 28° |
| 2026-05-05 08:37 | 32.91879 | 131.47978 | 35115 ft | 453 kts | 28° |
| 2026-05-05 08:38 | 32.97207 | 131.51912 | 35126 ft | 453 kts | 28° |
| 2026-05-05 08:38 | 33.02557 | 131.55885 | 35128 ft | 456 kts | 27° |
| 2026-05-05 08:39 | 33.07960 | 131.59898 | 35128 ft | 461 kts | 26° |
| 2026-05-05 08:39 | 33.13421 | 131.63959 | 35128 ft | 464 kts | 25° |
| 2026-05-05 08:40 | 33.18901 | 131.68015 | 35127 ft | 464 kts | 25° |
| 2026-05-05 08:40 | 33.24555 | 131.71532 | 35129 ft | 454 kts | 17° |
| 2026-05-05 08:41 | 33.30352 | 131.74545 | 35128 ft | 456 kts | 17° |
| 2026-05-05 08:41 | 33.36198 | 131.77562 | 35128 ft | 456 kts | 17° |
| 2026-05-05 08:42 | 33.41993 | 131.80551 | 35127 ft | 455 kts | 17° |
| 2026-05-05 08:42 | 33.47831 | 131.83565 | 35126 ft | 454 kts | 16° |
| 2026-05-05 08:43 | 33.53646 | 131.86562 | 35129 ft | 455 kts | 17° |
| 2026-05-05 08:43 | 33.59435 | 131.89554 | 35128 ft | 455 kts | 17° |
| 2026-05-05 08:44 | 33.65236 | 131.92554 | 35127 ft | 456 kts | 17° |
| 2026-05-05 08:44 | 33.71063 | 131.95570 | 35127 ft | 456 kts | 17° |
| 2026-05-05 08:45 | 33.76872 | 131.98581 | 35093 ft | 454 kts | 16° |
| 2026-05-05 08:45 | 33.79779 | 132.00089 | 34638 ft | 451 kts | 16° |
| 2026-05-05 08:45 | 33.82627 | 132.01566 | 34081 ft | 448 kts | 16° |
| 2026-05-05 08:45 | 33.85462 | 132.03035 | 33558 ft | 444 kts | 16° |
| 2026-05-05 08:46 | 33.88308 | 132.04507 | 33030 ft | 440 kts | 16° |
| 2026-05-05 08:46 | 33.91104 | 132.05957 | 32510 ft | 437 kts | 17° |
| 2026-05-05 08:46 | 33.93889 | 132.07402 | 31996 ft | 433 kts | 17° |
| 2026-05-05 08:46 | 33.96659 | 132.08841 | 31477 ft | 430 kts | 17° |
| 2026-05-05 08:47 | 33.99373 | 132.10254 | 30965 ft | 427 kts | 17° |
| 2026-05-05 08:47 | 34.02066 | 132.11658 | 30455 ft | 424 kts | 17° |
| 2026-05-05 08:47 | 34.04793 | 132.13078 | 29942 ft | 421 kts | 17° |
| 2026-05-05 08:47 | 34.07438 | 132.14459 | 29438 ft | 418 kts | 17° |
| 2026-05-05 08:48 | 34.10070 | 132.15973 | 28929 ft | 418 kts | 21° |
| 2026-05-05 08:48 | 34.12607 | 132.17616 | 28427 ft | 416 kts | 22° |
| 2026-05-05 08:48 | 34.15163 | 132.19299 | 27915 ft | 413 kts | 23° |
| 2026-05-05 08:48 | 34.17670 | 132.20944 | 27414 ft | 410 kts | 23° |
| 2026-05-05 08:49 | 34.20158 | 132.22571 | 26919 ft | 407 kts | 23° |
| 2026-05-05 08:49 | 34.22619 | 132.24178 | 26424 ft | 404 kts | 23° |
| 2026-05-05 08:49 | 34.25105 | 132.25798 | 25926 ft | 401 kts | 23° |
| 2026-05-05 08:49 | 34.27541 | 132.27383 | 25438 ft | 398 kts | 23° |
| 2026-05-05 08:50 | 34.29966 | 132.28961 | 24951 ft | 395 kts | 23° |
| 2026-05-05 08:50 | 34.32365 | 132.30521 | 24468 ft | 393 kts | 23° |
| 2026-05-05 08:50 | 34.34765 | 132.32083 | 23985 ft | 390 kts | 23° |
| 2026-05-05 08:50 | 34.37144 | 132.33632 | 23507 ft | 387 kts | 24° |
| 2026-05-05 08:51 | 34.39508 | 132.35170 | 23026 ft | 384 kts | 24° |
| 2026-05-05 08:51 | 34.41849 | 132.36693 | 22555 ft | 381 kts | 24° |
| 2026-05-05 08:51 | 34.44168 | 132.38196 | 22082 ft | 379 kts | 24° |
| 2026-05-05 08:51 | 34.46468 | 132.39687 | 21614 ft | 376 kts | 24° |
| 2026-05-05 08:52 | 34.48767 | 132.41177 | 21147 ft | 373 kts | 24° |
| 2026-05-05 08:52 | 34.51037 | 132.42650 | 20682 ft | 371 kts | 24° |
| 2026-05-05 08:52 | 34.53290 | 132.44113 | 20220 ft | 368 kts | 24° |
| 2026-05-05 08:52 | 34.55526 | 132.45566 | 19758 ft | 365 kts | 24° |
| 2026-05-05 08:53 | 34.57762 | 132.47018 | 19299 ft | 363 kts | 24° |
| 2026-05-05 08:53 | 34.59967 | 132.48453 | 18850 ft | 360 kts | 25° |
| 2026-05-05 08:53 | 34.62157 | 132.49878 | 18396 ft | 357 kts | 25° |
| 2026-05-05 08:53 | 34.64350 | 132.51308 | 17952 ft | 355 kts | 25° |
| 2026-05-05 08:54 | 34.66516 | 132.52719 | 17502 ft | 352 kts | 25° |
| 2026-05-05 08:54 | 34.68636 | 132.54102 | 17065 ft | 349 kts | 25° |
| 2026-05-05 08:54 | 34.70769 | 132.55493 | 16626 ft | 347 kts | 25° |
| 2026-05-05 08:54 | 34.72900 | 132.56885 | 16191 ft | 344 kts | 25° |
| 2026-05-05 08:55 | 34.74999 | 132.58256 | 15752 ft | 342 kts | 25° |
| 2026-05-05 08:55 | 34.77064 | 132.59605 | 15321 ft | 339 kts | 26° |
| 2026-05-05 08:55 | 34.79142 | 132.60965 | 14891 ft | 337 kts | 26° |
| 2026-05-05 08:55 | 34.81200 | 132.62311 | 14463 ft | 334 kts | 26° |
| 2026-05-05 08:56 | 34.83231 | 132.63641 | 14043 ft | 331 kts | 26° |
| 2026-05-05 08:56 | 34.85233 | 132.64952 | 13566 ft | 331 kts | 26° |
| 2026-05-05 08:56 | 34.87270 | 132.66287 | 13109 ft | 329 kts | 27° |
| 2026-05-05 08:56 | 34.89268 | 132.67596 | 12689 ft | 326 kts | 27° |
| 2026-05-05 08:57 | 34.91238 | 132.68890 | 12271 ft | 324 kts | 27° |
| 2026-05-05 08:57 | 34.93211 | 132.70187 | 11854 ft | 321 kts | 27° |
| 2026-05-05 08:57 | 34.95188 | 132.71487 | 11434 ft | 319 kts | 27° |
| 2026-05-05 08:57 | 34.97130 | 132.72766 | 11025 ft | 316 kts | 27° |
| 2026-05-05 08:58 | 34.99041 | 132.74023 | 10616 ft | 314 kts | 27° |
| 2026-05-05 08:58 | 35.00954 | 132.75284 | 10214 ft | 311 kts | 27° |
| 2026-05-05 08:58 | 35.02836 | 132.76523 | 10020 ft | 302 kts | 27° |
| 2026-05-05 08:58 | 35.04651 | 132.77719 | 9888 ft | 291 kts | 26° |
| 2026-05-05 08:59 | 35.06446 | 132.78899 | 9434 ft | 293 kts | 26° |
| 2026-05-05 08:59 | 35.08260 | 132.80093 | 9049 ft | 292 kts | 26° |
| 2026-05-05 08:59 | 35.10042 | 132.81267 | 8687 ft | 291 kts | 26° |
| 2026-05-05 08:59 | 35.11783 | 132.82417 | 8323 ft | 281 kts | 26° |
| 2026-05-05 09:00 | 35.13486 | 132.83542 | 7997 ft | 274 kts | 26° |
| 2026-05-05 09:00 | 35.15154 | 132.84642 | 7653 ft | 273 kts | 26° |
| 2026-05-05 09:00 | 35.16834 | 132.85751 | 7308 ft | 273 kts | 26° |
| 2026-05-05 09:00 | 35.18491 | 132.86819 | 6972 ft | 272 kts | 25° |
| 2026-05-05 09:01 | 35.20178 | 132.87820 | 6637 ft | 270 kts | 24° |
| 2026-05-05 09:01 | 35.21870 | 132.88809 | 6302 ft | 269 kts | 24° |
| 2026-05-05 09:01 | 35.23550 | 132.89795 | 5966 ft | 268 kts | 24° |
| 2026-05-05 09:01 | 35.25227 | 132.90781 | 5632 ft | 267 kts | 24° |
| 2026-05-05 09:02 | 35.26902 | 132.91769 | 5291 ft | 266 kts | 24° |
| 2026-05-05 09:02 | 35.28569 | 132.92750 | 4960 ft | 264 kts | 24° |
| 2026-05-05 09:02 | 35.30215 | 132.93727 | 4625 ft | 263 kts | 24° |
| 2026-05-05 09:02 | 35.31860 | 132.94701 | 4297 ft | 262 kts | 24° |
| 2026-05-05 09:03 | 35.33498 | 132.95666 | 3976 ft | 260 kts | 24° |
| 2026-05-05 09:03 | 35.35099 | 132.96613 | 3762 ft | 254 kts | 24° |
| 2026-05-05 09:03 | 35.36652 | 132.97531 | 3712 ft | 242 kts | 25° |
| 2026-05-05 09:03 | 35.38133 | 132.98416 | 3622 ft | 232 kts | 24° |
| 2026-05-05 09:04 | 35.39462 | 132.99495 | 3517 ft | 226 kts | 45° |
| 2026-05-05 09:04 | 35.40286 | 133.01100 | 3340 ft | 224 kts | 63° |
| 2026-05-05 09:04 | 35.40940 | 133.02832 | 3102 ft | 223 kts | 63° |
| 2026-05-05 09:04 | 35.41592 | 133.04526 | 2907 ft | 217 kts | 62° |
| 2026-05-05 09:05 | 35.42244 | 133.06181 | 2691 ft | 212 kts | 62° |
| 2026-05-05 09:05 | 35.42880 | 133.07771 | 2542 ft | 201 kts | 62° |
| 2026-05-05 09:05 | 35.43478 | 133.09264 | 2334 ft | 190 kts | 62° |
| 2026-05-05 09:05 | 35.44041 | 133.10673 | 2166 ft | 178 kts | 62° |
| 2026-05-05 09:06 | 35.44572 | 133.12004 | 1929 ft | 173 kts | 62° |
| 2026-05-05 09:06 | 35.45094 | 133.13304 | 1695 ft | 160 kts | 62° |
| 2026-05-05 09:06 | 35.45569 | 133.14487 | 1493 ft | 153 kts | 62° |
| 2026-05-05 09:06 | 35.46035 | 133.15651 | 1263 ft | 150 kts | 62° |
| 2026-05-05 09:07 | 35.46489 | 133.16783 | 1179 ft | 147 kts | 62° |
| 2026-05-05 09:07 | 35.46952 | 133.17941 | 918 ft | 153 kts | 62° |
| 2026-05-05 09:07 | 35.47405 | 133.19072 | 655 ft | 144 kts | 63° |
| 2026-05-05 09:07 | 35.47849 | 133.20184 | 537 ft | 147 kts | 63° |
| 2026-05-05 09:08 | 35.48306 | 133.21329 | 288 ft | 148 kts | 63° |
| 2026-05-05 09:08 | 35.48746 | 133.22429 | 80 ft | 140 kts | 64° |
| 2026-05-05 09:08 | 35.49140 | 133.23413 | 11 ft | 101 kts | 64° |
| 2026-05-05 09:08 | 35.49365 | 133.23978 | 23 ft | 57 kts | 63° |
| 2026-05-05 09:09 | 35.49519 | 133.24371 | 26 ft | 41 kts | 64° |
| 2026-05-05 09:09 | 35.49601 | 133.24573 | 26 ft | 18 kts | 56° |
| 2026-05-05 09:09 | 35.49692 | 133.24612 | 26 ft | 13 kts | 341° |
| 2026-05-05 09:09 | 35.49770 | 133.24568 | 26 ft | 11 kts | 333° |
| 2026-05-05 09:10 | 35.49845 | 133.24525 | 26 ft | 11 kts | 345° |
| 2026-05-05 09:10 | 35.49907 | 133.24564 | 26 ft | 8 kts | 49° |
| 2026-05-05 09:10 | 35.49952 | 133.24564 | 26 ft | 6 kts | 330° |
| 2026-05-05 09:10 | 35.49984 | 133.24544 | 26 ft | 3 kts | 333° |
| 2026-05-05 09:11 | 35.49994 | 133.24538 | 26 ft | 0 kts | 334° |
| 2026-05-05 09:11 | 35.49995 | 133.24536 | 26 ft | 0 kts | 334° |